Time;durP1;ratioP1;P1;durP2;ratioP2;P2;SDS_P1;SDS_P2;PMS_P1;PMS_P2;Temp;Humidity;BMP_temperature;BMP_pressure;BME280_temperature;BME280_humidity;BME280_pressure;Samples;Min_cycle;Max_cycle;Signal;HPM_P1;HPM_P2
2024/01/13 00:03:09;;;;;;;;;;;0.80;99.90;;;;;;6721320;88;20600;-76
2024/01/13 00:13:10;;;;;;;;;;;0.80;99.90;;;;;;6720840;88;20133;-77
2024/01/13 00:23:10;;;;;;;;;;;0.80;99.90;;;;;;6718664;88;20050;-77
2024/01/13 00:33:11;;;;;;;;;;;0.70;99.90;;;;;;6726709;88;20139;-76
2024/01/13 00:43:11;;;;;;;;;;;0.70;99.90;;;;;;6709899;88;20553;-77
2024/01/13 00:53:12;;;;;;;;;;;0.70;99.90;;;;;;6715883;88;20090;-78
2024/01/13 01:03:12;;;;;;;;;;;0.60;99.90;;;;;;6716262;88;20548;-78
2024/01/13 01:13:13;;;;;;;;;;;0.70;99.90;;;;;;6717500;88;20067;-77
2024/01/13 01:23:13;;;;;;;;;;;0.70;99.90;;;;;;6719510;88;20695;-78
2024/01/13 01:33:13;;;;;;;;;;;0.70;99.90;;;;;;6714619;88;20280;-78
2024/01/13 01:43:14;;;;;;;;;;;0.80;99.90;;;;;;6724272;88;20086;-78
2024/01/13 01:53:14;;;;;;;;;;;0.70;99.90;;;;;;6718663;88;20087;-77
2024/01/13 02:03:15;;;;;;;;;;;0.70;99.90;;;;;;6718822;88;20517;-77
2024/01/13 02:13:15;;;;;;;;;;;0.60;99.90;;;;;;6720298;88;20598;-77
2024/01/13 02:23:16;;;;;;;;;;;0.70;99.90;;;;;;6717344;88;20084;-78
2024/01/13 02:33:16;;;;;;;;;;;0.70;99.90;;;;;;6710567;88;20070;-78
2024/01/13 02:43:17;;;;;;;;;;;0.80;99.90;;;;;;6710894;88;20046;-77
2024/01/13 02:53:17;;;;;;;;;;;0.70;99.90;;;;;;6717256;88;20070;-76
2024/01/13 03:03:18;;;;;;;;;;;0.70;99.90;;;;;;6717381;88;20530;-77
2024/01/13 03:13:19;;;;;;;;;;;0.80;99.90;;;;;;6712069;88;20080;-77
2024/01/13 03:23:19;;;;;;;;;;;0.70;99.90;;;;;;6696454;88;20170;-77
2024/01/13 03:33:19;;;;;;;;;;;0.80;99.90;;;;;;6716232;78;20170;-77
2024/01/13 03:43:20;;;;;;;;;;;0.80;99.90;;;;;;6699882;88;20580;-77
2024/01/13 03:53:20;;;;;;;;;;;0.80;99.90;;;;;;6712178;88;20076;-77
2024/01/13 04:03:21;;;;;;;;;;;0.90;99.90;;;;;;6715665;88;20545;-77
2024/01/13 04:13:21;;;;;;;;;;;1.00;99.90;;;;;;6713174;88;20102;-77
2024/01/13 04:23:22;;;;;;;;;;;1.10;99.90;;;;;;6708503;88;20079;-77
2024/01/13 04:33:22;;;;;;;;;;;1.00;99.90;;;;;;6714406;88;20472;-78
2024/01/13 04:43:23;;;;;;;;;;;1.10;99.90;;;;;;6720220;88;20108;-76
2024/01/13 04:53:23;;;;;;;;;;;1.30;99.90;;;;;;6713497;88;20059;-76
2024/01/13 05:03:24;;;;;;;;;;;1.30;99.90;;;;;;6711086;88;20223;-76
2024/01/13 05:13:24;;;;;;;;;;;1.30;99.90;;;;;;6707799;88;20064;-77
2024/01/13 05:23:24;;;;;;;;;;;1.40;99.90;;;;;;6716367;88;20067;-76
2024/01/13 05:33:26;;;;;;;;;;;1.70;99.90;;;;;;6712784;88;20121;-76
2024/01/13 05:43:27;;;;;;;;;;;1.60;99.90;;;;;;6711089;88;20555;-76
2024/01/13 05:53:28;;;;;;;;;;;1.60;99.90;;;;;;6711092;88;20099;-77
2024/01/13 06:03:28;;;;;;;;;;;1.70;99.90;;;;;;6710005;88;20488;-76
2024/01/13 06:13:29;;;;;;;;;;;1.70;99.90;;;;;;6719874;88;20569;-77
2024/01/13 06:23:29;;;;;;;;;;;1.70;99.90;;;;;;6714716;88;20051;-76
2024/01/13 06:33:30;;;;;;;;;;;1.60;99.90;;;;;;6711602;88;20116;-76
2024/01/13 06:43:30;;;;;;;;;;;1.80;99.90;;;;;;6714160;88;20076;-75
2024/01/13 06:53:31;;;;;;;;;;;1.80;99.90;;;;;;6710238;88;20511;-75
2024/01/13 07:03:31;;;;;;;;;;;1.80;99.90;;;;;;6707001;88;20073;-77
2024/01/13 07:13:32;;;;;;;;;;;1.70;99.90;;;;;;6718064;88;20062;-78
2024/01/13 07:23:32;;;;;;;;;;;1.80;99.90;;;;;;6711180;88;20600;-77
2024/01/13 07:33:33;;;;;;;;;;;1.70;99.90;;;;;;6710560;88;20223;-77
2024/01/13 07:43:33;;;;;;;;;;;1.80;99.90;;;;;;6711493;88;20160;-77
2024/01/13 07:53:34;;;;;;;;;;;1.90;99.90;;;;;;6708496;88;20055;-77
2024/01/13 08:03:34;;;;;;;;;;;2.00;99.90;;;;;;6710615;88;20078;-77
2024/01/13 08:13:35;;;;;;;;;;;2.10;99.90;;;;;;6716480;88;20844;-77
2024/01/13 08:23:35;;;;;;;;;;;2.10;99.90;;;;;;6717738;88;20718;-77
2024/01/13 08:33:36;;;;;;;;;;;2.10;99.90;;;;;;6721349;88;20060;-77
2024/01/13 08:43:36;;;;;;;;;;;2.10;99.90;;;;;;6713986;88;20079;-77
2024/01/13 08:53:37;;;;;;;;;;;2.20;99.90;;;;;;6721539;88;20064;-77
2024/01/13 09:03:37;;;;;;;;;;;2.20;99.90;;;;;;6723211;88;20067;-77
2024/01/13 09:13:38;;;;;;;;;;;2.20;99.90;;;;;;6719169;88;20062;-77
2024/01/13 09:23:39;;;;;;;;;;;2.20;99.90;;;;;;6713565;88;20064;-76
2024/01/13 09:33:40;;;;;;;;;;;2.20;99.90;;;;;;6714821;88;20139;-76
2024/01/13 09:44:09;;;;;;;;;;;2.30;99.90;;;;;;6707465;77;20114;-76
2024/01/13 09:54:23;;;;;;;;;;;2.30;99.90;;;;;;6690499;88;20775;-75
2024/01/13 10:04:23;;;;;;;;;;;2.40;99.90;;;;;;6696688;88;20067;-75
2024/01/13 10:14:24;;;;;;;;;;;2.40;99.90;;;;;;6694876;88;20065;-75
2024/01/13 10:24:24;;;;;;;;;;;2.40;99.90;;;;;;6696149;88;20064;-76
2024/01/13 10:34:25;;;;;;;;;;;2.50;99.90;;;;;;6692258;88;20063;-74
2024/01/13 10:44:27;;;;;;;;;;;2.50;99.90;;;;;;6695563;88;20089;-75
2024/01/13 10:54:28;;;;;;;;;;;2.60;99.90;;;;;;6693018;88;20051;-74
2024/01/13 11:04:30;;;;;;;;;;;2.60;99.90;;;;;;6692800;88;20062;-74
2024/01/13 11:14:34;;;;;;;;;;;2.50;99.90;;;;;;6698382;88;20072;-75
2024/01/13 11:24:35;;;;;;;;;;;2.60;99.90;;;;;;6697564;88;20206;-74
2024/01/13 11:34:35;;;;;;;;;;;2.60;99.90;;;;;;6692708;88;20075;-76
2024/01/13 11:44:37;;;;;;;;;;;2.80;99.90;;;;;;6699798;88;20056;-74
2024/01/13 11:54:38;;;;;;;;;;;2.60;99.90;;;;;;6694983;88;20201;-75
2024/01/13 12:04:41;;;;;;;;;;;2.40;99.90;;;;;;6699606;88;20530;-76
2024/01/13 12:14:42;;;;;;;;;;;2.40;99.90;;;;;;6690908;88;20154;-74
2024/01/13 12:24:42;;;;;;;;;;;2.40;99.90;;;;;;6687299;88;20457;-75
2024/01/13 12:34:43;;;;;;;;;;;2.40;99.90;;;;;;6696488;88;20093;-75
2024/01/13 12:44:43;;;;;;;;;;;2.40;99.90;;;;;;6688032;88;20100;-75
2024/01/13 12:54:44;;;;;;;;;;;2.30;99.90;;;;;;6686315;88;20056;-77
2024/01/13 13:04:44;;;;;;;;;;;2.30;99.90;;;;;;6685249;88;20199;-74
2024/01/13 13:14:46;;;;;;;;;;;2.20;99.90;;;;;;6700026;88;20081;-76
2024/01/13 13:24:47;;;;;;;;;;;2.20;99.90;;;;;;6694975;88;20110;-76
2024/01/13 13:34:47;;;;;;;;;;;2.10;99.90;;;;;;6701673;88;20068;-77
2024/01/13 13:44:47;;;;;;;;;;;2.10;99.90;;;;;;6704287;88;20490;-76
2024/01/13 13:54:48;;;;;;;;;;;2.10;99.90;;;;;;6695741;88;20056;-77
2024/01/13 14:04:49;;;;;;;;;;;2.10;99.90;;;;;;6697086;88;20227;-76
2024/01/13 14:14:49;;;;;;;;;;;2.20;99.90;;;;;;6692816;88;20157;-78
2024/01/13 14:24:50;;;;;;;;;;;2.20;99.90;;;;;;6708189;88;20067;-77
2024/01/13 14:34:50;;;;;;;;;;;2.20;99.90;;;;;;6698538;88;20215;-77
2024/01/13 14:44:50;;;;;;;;;;;2.30;99.90;;;;;;6697980;88;20091;-76
2024/01/13 14:54:51;;;;;;;;;;;2.30;99.90;;;;;;6689989;88;20268;-75
2024/01/13 15:04:51;;;;;;;;;;;2.30;99.90;;;;;;6690408;88;20081;-75
2024/01/13 15:14:52;;;;;;;;;;;2.40;99.90;;;;;;6691660;88;20051;-75
2024/01/13 15:24:53;;;;;;;;;;;2.40;99.90;;;;;;6689306;88;20196;-76
2024/01/13 15:34:53;;;;;;;;;;;2.30;99.90;;;;;;6703372;88;20569;-75
2024/01/13 15:44:54;;;;;;;;;;;2.30;99.90;;;;;;6697525;77;20064;-77
2024/01/13 15:54:54;;;;;;;;;;;2.30;99.90;;;;;;6684189;88;20061;-78
2024/01/13 16:04:57;;;;;;;;;;;2.30;99.90;;;;;;6687109;88;20171;-78
2024/01/13 16:14:57;;;;;;;;;;;2.20;99.90;;;;;;6686209;88;20127;-76
2024/01/13 16:24:58;;;;;;;;;;;2.20;99.90;;;;;;6686505;88;20064;-77
2024/01/13 16:34:58;;;;;;;;;;;2.10;99.90;;;;;;6689611;88;20084;-78
2024/01/13 16:44:59;;;;;;;;;;;2.10;99.90;;;;;;6686562;88;20076;-76
2024/01/13 16:54:59;;;;;;;;;;;2.10;99.90;;;;;;6685852;88;20063;-77
2024/01/13 17:05:01;;;;;;;;;;;2.10;99.90;;;;;;6668997;89;20115;-76
2024/01/13 17:15:01;;;;;;;;;;;2.00;99.90;;;;;;6669021;89;20221;-77
2024/01/13 17:25:02;;;;;;;;;;;2.00;99.90;;;;;;6668726;89;20057;-76
2024/01/13 17:35:04;;;;;;;;;;;1.90;99.90;;;;;;6688272;88;20104;-77
2024/01/13 17:45:07;;;;;;;;;;;1.90;99.90;;;;;;6686916;88;20128;-78
2024/01/13 17:55:07;;;;;;;;;;;2.00;99.90;;;;;;6689541;88;20097;-76
2024/01/13 18:05:12;;;;;;;;;;;1.90;99.90;;;;;;6686195;88;20083;-76
2024/01/13 18:15:13;;;;;;;;;;;1.90;99.90;;;;;;6684093;88;20497;-77
2024/01/13 18:25:13;;;;;;;;;;;1.80;99.90;;;;;;6687254;88;20052;-76
2024/01/13 18:35:14;;;;;;;;;;;1.80;99.90;;;;;;6684991;88;20056;-77
2024/01/13 18:45:14;;;;;;;;;;;1.80;99.90;;;;;;6685490;88;20528;-77
2024/01/13 18:55:15;;;;;;;;;;;1.70;99.90;;;;;;6681592;88;20119;-77
2024/01/13 19:05:15;;;;;;;;;;;1.70;99.90;;;;;;6688008;88;20575;-76
2024/01/13 19:15:16;;;;;;;;;;;1.70;99.90;;;;;;6694133;88;20214;-78
2024/01/13 19:25:16;;;;;;;;;;;1.50;99.90;;;;;;6689259;88;20061;-76
2024/01/13 19:35:17;;;;;;;;;;;1.50;99.90;;;;;;6684821;88;20845;-77
2024/01/13 19:45:18;;;;;;;;;;;1.40;99.90;;;;;;6675644;88;20067;-76
2024/01/13 19:55:18;;;;;;;;;;;1.40;99.90;;;;;;6664740;89;20137;-76
2024/01/13 20:05:19;;;;;;;;;;;1.50;99.90;;;;;;6665508;89;20444;-77
2024/01/13 20:15:20;;;;;;;;;;;1.60;99.90;;;;;;6667813;89;20120;-77
2024/01/13 20:25:20;;;;;;;;;;;1.70;99.90;;;;;;6668209;89;20976;-77
2024/01/13 20:35:21;;;;;;;;;;;1.80;99.90;;;;;;6667597;89;20049;-78
2024/01/13 20:45:21;;;;;;;;;;;1.90;99.90;;;;;;6669771;89;20203;-76
2024/01/13 20:55:22;;;;;;;;;;;1.90;99.90;;;;;;6668884;88;20056;-76
2024/01/13 21:05:23;;;;;;;;;;;1.90;99.90;;;;;;6663951;89;20116;-76
2024/01/13 21:15:24;;;;;;;;;;;1.90;99.90;;;;;;6667478;89;20057;-76
2024/01/13 21:25:24;;;;;;;;;;;1.90;99.90;;;;;;6665399;88;20090;-76
2024/01/13 21:35:25;;;;;;;;;;;1.90;99.90;;;;;;6667235;89;20071;-77
2024/01/13 21:55:28;;;;;;;;;;;1.90;99.90;;;;;;6713188;88;20051;-79
2024/01/13 22:05:29;;;;;;;;;;;2.00;99.90;;;;;;6711973;88;20062;-79
2024/01/13 22:15:30;;;;;;;;;;;1.90;99.90;;;;;;6706672;88;20082;-79
2024/01/13 22:25:31;;;;;;;;;;;1.90;99.90;;;;;;6709986;88;20565;-79
2024/01/13 22:35:31;;;;;;;;;;;1.90;99.90;;;;;;6707964;88;20059;-79
2024/01/13 22:45:32;;;;;;;;;;;2.00;99.90;;;;;;6711989;88;20059;-79
2024/01/13 22:55:32;;;;;;;;;;;1.90;99.90;;;;;;6712942;88;20109;-78
2024/01/13 23:05:35;;;;;;;;;;;2.00;99.90;;;;;;6711540;88;20055;-78
2024/01/13 23:15:38;;;;;;;;;;;2.00;99.90;;;;;;6713552;88;20068;-79
2024/01/13 23:25:39;;;;;;;;;;;2.00;99.90;;;;;;6707605;88;20091;-79
2024/01/13 23:35:39;;;;;;;;;;;2.00;99.90;;;;;;6703480;88;20538;-79
2024/01/13 23:45:40;;;;;;;;;;;2.00;99.90;;;;;;6703251;88;20051;-77
2024/01/13 23:55:40;;;;;;;;;;;2.00;99.90;;;;;;6702533;88;20626;-77
